Time;durP1;ratioP1;P1;durP2;ratioP2;P2;SDS_P1;SDS_P2;PMS_P1;PMS_P2;Temp;Humidity;BMP_temperature;BMP_pressure;BME280_temperature;BME280_humidity;BME280_pressure;Samples;Min_cycle;Max_cycle;Signal;HPM_P1;HPM_P2
2024/04/26 00:00:02;;;;;;;7.70;1.60;;;;;;;19.24;45.54;99971.78;2286118;76;52506;-78
2024/04/26 00:03:04;;;;;;;6.50;1.60;;;;;;;19.25;45.54;99964.89;2280260;76;50458;-79
2024/04/26 00:06:07;;;;;;;9.65;1.95;;;;;;;19.24;45.55;99964.59;2280254;76;50626;-78
2024/04/26 00:09:09;;;;;;;8.23;1.55;;;;;;;19.24;45.55;99963.25;2255533;76;52498;-79
2024/04/26 00:12:11;;;;;;;6.92;1.32;;;;;;;19.24;45.59;99963.25;2318079;76;51557;-79
2024/04/26 00:15:13;;;;;;;4.62;1.72;;;;;;;19.24;45.64;99965.08;2305677;76;51526;-78
2024/04/26 00:18:15;;;;;;;7.37;1.30;;;;;;;19.24;45.67;99967.76;2280387;76;50748;-79
2024/04/26 00:21:18;;;;;;;4.87;1.27;;;;;;;19.23;45.68;99967.46;2305849;76;50670;-78
2024/04/26 00:24:20;;;;;;;10.30;2.30;;;;;;;19.22;45.76;99958.59;2286464;76;50971;-78
2024/04/26 00:27:22;;;;;;;6.05;2.00;;;;;;;19.22;45.79;99958.59;2304212;76;50618;-78
2024/04/26 00:30:24;;;;;;;10.30;2.00;;;;;;;19.23;45.77;99965.59;2318249;76;51416;-78
2024/04/26 00:33:27;;;;;;;6.58;1.80;;;;;;;19.23;45.78;99956.73;2285979;76;51014;-78
2024/04/26 00:36:29;;;;;;;9.53;2.00;;;;;;;19.22;45.77;99955.91;2305869;76;51457;-78
2024/04/26 00:39:31;;;;;;;7.50;2.27;;;;;;;19.22;45.75;99958.59;2318200;76;51499;-78
2024/04/26 00:42:33;;;;;;;6.70;1.40;;;;;;;19.23;45.71;99958.08;2318186;76;50334;-78
2024/04/26 00:45:35;;;;;;;4.70;1.60;;;;;;;19.23;45.70;99964.26;2305861;76;50255;-78
2024/04/26 00:48:37;;;;;;;7.08;1.70;;;;;;;19.24;45.69;99955.20;2279157;76;50157;-78
2024/04/26 00:51:40;;;;;;;8.33;1.37;;;;;;;19.24;45.66;99955.20;2318346;76;50658;-78
2024/04/26 00:54:42;;;;;;;6.20;1.45;;;;;;;19.25;45.67;99953.34;2318265;76;50349;-79
2024/04/26 00:57:44;;;;;;;5.70;1.52;;;;;;;19.24;45.64;99957.88;2286195;76;51365;-79
2024/04/26 01:00:46;;;;;;;6.97;1.72;;;;;;;19.23;45.65;99958.08;2318301;76;50330;-78
2024/04/26 01:03:49;;;;;;;10.65;1.95;;;;;;;19.24;45.63;99953.86;2318343;76;50746;-78
2024/04/26 01:06:51;;;;;;;7.35;1.62;;;;;;;19.24;45.63;99952.52;2317994;76;50801;-78
2024/04/26 01:09:53;;;;;;;6.95;1.60;;;;;;;19.23;45.64;99961.58;2318272;76;51535;-78
2024/04/26 01:12:55;;;;;;;3.77;1.30;;;;;;;19.23;45.66;99959.41;2286563;76;49534;-78
2024/04/26 01:15:57;;;;;;;7.17;1.42;;;;;;;19.21;45.69;99958.27;2317980;76;50379;-78
2024/04/26 01:19:00;;;;;;;4.22;1.40;;;;;;;19.23;45.68;99968.80;2304765;76;50321;-78
2024/04/26 01:22:05;;;;;;;9.55;1.47;;;;;;;19.21;45.71;99966.31;2286465;76;51768;-78
2024/04/26 01:25:08;;;;;;;6.97;1.57;;;;;;;19.20;45.71;99967.35;2318258;76;51565;-77
2024/04/26 01:28:10;;;;;;;3.10;1.20;;;;;;;19.19;45.78;99967.55;2318462;76;51513;-79
2024/04/26 01:31:12;;;;;;;6.25;1.60;;;;;;;19.20;45.73;99969.22;2318352;76;50365;-78
2024/04/26 01:34:14;;;;;;;12.70;1.70;;;;;;;19.20;45.71;99975.40;2318255;76;50406;-78
2024/04/26 01:37:16;;;;;;;5.28;1.30;;;;;;;19.19;45.74;99972.91;2286266;76;49550;-77
2024/04/26 01:40:18;;;;;;;7.05;1.60;;;;;;;19.19;45.72;99972.42;2318250;76;50362;-77
2024/04/26 01:43:21;;;;;;;6.67;1.65;;;;;;;19.20;45.72;99975.40;2318206;76;50465;-78
2024/04/26 01:46:23;;;;;;;3.58;1.30;;;;;;;19.19;45.70;99975.59;2285819;76;50077;-78
2024/04/26 01:49:25;;;;;;;7.17;1.55;;;;;;;19.21;45.66;99979.72;2318193;76;50610;-78
2024/04/26 01:52:27;;;;;;;3.08;1.47;;;;;;;19.20;45.66;99980.77;2318237;76;51500;-78
2024/04/26 01:55:29;;;;;;;4.62;1.10;;;;;;;19.21;45.65;99980.24;2317896;76;51457;-78
2024/04/26 01:58:33;;;;;;;5.85;1.20;;;;;;;19.20;45.66;99986.13;2318127;76;51488;-77
2024/04/26 02:01:37;;;;;;;5.25;1.25;;;;;;;19.19;45.69;99978.27;2306203;76;54752;-78
2024/04/26 02:04:39;;;;;;;3.42;1.00;;;;;;;19.19;45.68;99983.64;2318186;76;50675;-77
2024/04/26 02:07:42;;;;;;;3.35;1.30;;;;;;;19.18;45.71;99985.50;2304277;76;50366;-78
2024/04/26 02:10:44;;;;;;;4.78;1.40;;;;;;;19.18;45.67;99977.45;2279032;76;52509;-77
2024/04/26 02:13:46;;;;;;;3.83;1.22;;;;;;;19.18;45.70;99976.11;2318160;76;51522;-78
2024/04/26 02:16:48;;;;;;;4.58;1.02;;;;;;;19.18;45.69;99973.95;2317963;76;51465;-77
2024/04/26 02:19:51;;;;;;;3.05;1.45;;;;;;;19.19;45.70;99976.93;2306116;76;51509;-78
2024/04/26 02:22:53;;;;;;;6.35;1.50;;;;;;;19.18;45.69;99986.84;2306113;76;50187;-77
2024/04/26 02:25:55;;;;;;;5.65;1.40;;;;;;;19.19;45.65;99984.98;2279952;76;51346;-77
2024/04/26 02:28:57;;;;;;;2.65;0.98;;;;;;;19.18;45.64;99978.80;2318124;76;50742;-79
2024/04/26 02:31:59;;;;;;;6.20;1.40;;;;;;;19.19;45.58;99982.30;2304773;76;50703;-78
2024/04/26 02:35:02;;;;;;;2.58;0.90;;;;;;;19.20;45.57;99981.28;2286111;76;50973;-78
2024/04/26 02:38:04;;;;;;;7.87;1.50;;;;;;;19.20;45.58;99979.94;2304562;76;51410;-77
2024/04/26 02:41:06;;;;;;;4.97;1.37;;;;;;;19.18;45.56;99982.81;2280319;76;50390;-78
2024/04/26 02:44:08;;;;;;;6.20;1.37;;;;;;;19.18;45.56;99973.42;2318106;76;50408;-77
2024/04/26 02:47:11;;;;;;;3.98;1.10;;;;;;;19.17;45.57;99969.11;2318018;76;50244;-78
2024/04/26 02:50:13;;;;;;;2.22;1.10;;;;;;;19.17;45.55;99970.45;2279195;76;51234;-78
2024/04/26 02:53:15;;;;;;;3.65;1.20;;;;;;;19.17;45.59;99975.81;2318373;76;50222;-78
2024/04/26 02:56:17;;;;;;;3.75;0.88;;;;;;;19.17;45.57;99971.79;2318002;76;50238;-78
2024/04/26 02:59:19;;;;;;;5.53;1.45;;;;;;;19.16;45.60;99968.78;2286214;76;50073;-77
2024/04/26 03:02:21;;;;;;;4.33;1.72;;;;;;;19.14;45.63;99972.20;2280279;76;50523;-79
2024/04/26 03:05:24;;;;;;;3.45;1.25;;;;;;;19.15;45.62;99976.00;2318065;76;51606;-79
2024/04/26 03:08:26;;;;;;;4.60;1.20;;;;;;;19.15;45.63;99979.20;2318160;76;51608;-79
2024/04/26 03:11:28;;;;;;;2.70;1.10;;;;;;;19.15;45.64;99979.20;2318353;76;51466;-78
2024/04/26 03:14:31;;;;;;;3.83;1.37;;;;;;;19.15;45.66;99980.55;2286291;76;50700;-78
2024/04/26 03:17:34;;;;;;;7.62;1.50;;;;;;;19.13;45.66;99978.58;2318082;76;51552;-78
2024/04/26 03:20:37;;;;;;;4.53;1.42;;;;;;;19.15;45.66;99983.23;2318328;76;51476;-78
2024/04/26 03:23:39;;;;;;;5.70;1.27;;;;;;;19.15;45.63;99984.56;2286275;76;52499;-79
2024/04/26 03:26:41;;;;;;;1.50;0.98;;;;;;;19.15;45.60;99979.20;2317950;76;50385;-78
2024/04/26 03:29:43;;;;;;;3.80;1.30;;;;;;;19.16;45.58;99982.19;2318237;76;50346;-78
2024/04/26 03:32:46;;;;;;;7.15;1.30;;;;;;;19.15;45.57;99984.05;2318207;76;50312;-78
2024/04/26 03:35:48;;;;;;;5.47;1.10;;;;;;;19.14;45.56;99978.39;2304402;76;50203;-78
2024/04/26 03:38:53;;;;;;;5.62;1.20;;;;;;;19.16;45.54;99990.23;2286363;76;50149;-78
2024/04/26 03:41:55;;;;;;;6.75;1.25;;;;;;;19.17;45.51;99991.08;2318523;76;52561;-79
2024/04/26 03:44:57;;;;;;;2.47;1.07;;;;;;;19.15;45.56;99992.61;2306244;76;49943;-79
2024/04/26 03:48:00;;;;;;;3.10;1.30;;;;;;;19.14;45.57;99988.30;2286513;76;49319;-79
2024/04/26 03:51:02;;;;;;;9.75;1.32;;;;;;;19.14;45.59;99988.30;2318360;76;50385;-79
2024/04/26 03:54:04;;;;;;;4.40;1.32;;;;;;;19.12;45.62;99989.00;2318276;76;50768;-78
2024/04/26 03:57:06;;;;;;;4.53;1.52;;;;;;;19.11;45.62;99987.33;2280395;76;51563;-79
2024/04/26 04:00:09;;;;;;;3.87;1.47;;;;;;;19.13;45.62;99996.00;2318337;76;51620;-78
2024/04/26 04:03:11;;;;;;;4.83;1.17;;;;;;;19.12;45.60;99993.02;2280539;76;51334;-79
2024/04/26 04:06:13;;;;;;;3.72;1.30;;;;;;;19.12;45.60;99993.02;2318144;76;51534;-79
2024/04/26 04:09:15;;;;;;;3.02;1.27;;;;;;;19.12;45.60;99995.70;2318411;76;51533;-79
2024/04/26 04:12:18;;;;;;;3.92;1.27;;;;;;;19.14;45.56;99986.95;2286550;76;49595;-78
2024/04/26 04:15:20;;;;;;;4.75;1.20;;;;;;;19.13;45.55;99988.78;2318223;76;50293;-78
2024/04/26 04:18:22;;;;;;;6.65;1.85;;;;;;;19.14;45.55;99990.97;2318476;76;50713;-78
2024/04/26 04:21:24;;;;;;;4.53;1.40;;;;;;;19.13;45.52;99986.62;2304749;76;50793;-78
2024/04/26 04:24:26;;;;;;;4.60;1.50;;;;;;;19.13;45.50;99993.33;2306285;76;50610;-78
2024/04/26 04:27:28;;;;;;;4.75;1.12;;;;;;;19.14;45.50;99996.34;2318123;76;51581;-79
2024/04/26 04:30:31;;;;;;;3.27;1.40;;;;;;;19.14;45.49;99992.31;2318388;76;51486;-78
2024/04/26 04:33:33;;;;;;;5.78;1.32;;;;;;;19.14;45.49;99988.30;2280402;76;52227;-77
2024/04/26 04:36:35;;;;;;;4.60;1.47;;;;;;;19.13;45.49;99988.78;2286184;76;49564;-78
2024/04/26 04:39:40;;;;;;;4.42;1.15;;;;;;;19.12;45.51;99991.69;2318282;76;50331;-78
2024/04/26 04:42:42;;;;;;;3.80;1.20;;;;;;;19.11;45.51;99992.70;2286501;76;49887;-78
2024/04/26 04:45:44;;;;;;;2.92;1.40;;;;;;;19.13;45.52;99989.30;2318137;76;50369;-78
2024/04/26 04:48:47;;;;;;;7.33;1.40;;;;;;;19.13;45.54;99989.30;2318440;76;50706;-78
2024/04/26 04:51:49;;;;;;;2.87;1.30;;;;;;;19.12;45.54;99990.34;2279162;76;52687;-78
2024/04/26 04:54:51;;;;;;;4.62;1.57;;;;;;;19.13;45.54;99993.33;2318223;76;50762;-77
2024/04/26 04:57:53;;;;;;;5.90;1.32;;;;;;;19.11;45.53;99985.98;2280168;76;50639;-77
2024/04/26 05:00:55;;;;;;;5.33;1.12;;;;;;;19.12;45.58;99993.84;2286254;76;51131;-77
2024/04/26 05:03:58;;;;;;;3.10;1.02;;;;;;;19.11;45.58;99999.40;2322861;75;51425;-77
2024/04/26 05:07:00;;;;;;;20.08;2.40;;;;;;;19.12;46.46;100006.44;2325351;75;51478;-76
2024/04/26 05:10:02;;;;;;;8.18;1.55;;;;;;;19.14;47.48;99998.50;2318117;76;50338;-75
2024/04/26 05:13:05;;;;;;;9.93;1.98;;;;;;;19.16;47.50;100000.95;2267351;78;50735;-74
2024/04/26 05:16:07;;;;;;;13.53;2.17;;;;;;;19.17;47.70;99996.45;2262611;77;49521;-76
2024/04/26 05:19:10;;;;;;;7.58;2.08;;;;;;;19.19;47.61;99999.73;2221091;78;50766;-75
2024/04/26 05:22:12;;;;;;;11.63;1.82;;;;;;;19.17;47.62;99998.61;2268226;78;51562;-77
2024/04/26 05:25:16;;;;;;;17.98;2.87;;;;;;;19.18;47.55;100000.25;2244446;78;51691;-75
2024/04/26 05:28:19;;;;;;;27.62;2.65;;;;;;;19.20;47.85;100004.08;2245242;78;50292;-76
2024/04/26 05:31:21;;;;;;;17.90;2.72;;;;;;;19.24;47.80;100004.82;2268424;77;51596;-76
2024/04/26 05:34:23;;;;;;;8.35;2.30;;;;;;;19.29;48.73;100005.04;2268357;78;51478;-75
2024/04/26 05:37:25;;;;;;;19.55;2.80;;;;;;;19.26;48.78;100008.09;2249761;76;50359;-75
2024/04/26 05:40:27;;;;;;;18.42;2.52;;;;;;;19.31;48.76;100019.56;2291786;76;49667;-77
2024/04/26 05:43:30;;;;;;;16.35;2.67;;;;;;;19.33;48.71;100018.86;2317836;76;50683;-75
2024/04/26 05:46:32;;;;;;;17.27;2.80;;;;;;;19.34;48.35;100013.80;2316178;76;51181;-74
2024/04/26 05:49:34;;;;;;;25.30;3.02;;;;;;;19.34;48.32;100010.62;2291627;76;52677;-75
2024/04/26 05:52:36;;;;;;;17.48;3.30;;;;;;;19.32;47.92;100009.98;2316069;76;51521;-75
2024/04/26 05:55:38;;;;;;;22.50;3.55;;;;;;;19.32;48.00;100032.80;2317547;76;52100;-75
2024/04/26 05:58:41;;;;;;;29.05;2.83;;;;;;;19.33;47.99;100016.17;2317827;75;50280;-76
2024/04/26 06:01:43;;;;;;;25.27;2.70;;;;;;;19.33;47.83;100015.66;2310122;76;50300;-75
2024/04/26 06:04:48;;;;;;;22.40;2.75;;;;;;;19.33;47.99;100018.34;2255977;76;50087;-74
2024/04/26 06:07:50;;;;;;;16.30;2.70;;;;;;;19.34;47.67;100024.03;2296711;76;22620;-74
2024/04/26 06:10:52;;;;;;;15.93;2.62;;;;;;;19.34;47.57;100025.38;2317684;76;51505;-75
2024/04/26 06:13:54;;;;;;;16.02;2.52;;;;;;;19.35;47.46;100018.14;2285769;76;51058;-75
2024/04/26 06:16:57;;;;;;;14.90;2.83;;;;;;;19.36;47.34;100019.27;2317622;76;51459;-76
2024/04/26 06:19:59;;;;;;;21.33;3.42;;;;;;;19.34;47.46;100020.01;2280192;76;51629;-76
2024/04/26 06:23:01;;;;;;;17.25;2.62;;;;;;;19.34;49.06;100028.05;2312629;76;51560;-76
2024/04/26 06:26:04;;;;;;;21.33;3.10;;;;;;;19.35;49.39;100027.02;2297486;75;50364;-76
2024/04/26 06:29:06;;;;;;;14.38;2.72;;;;;;;19.36;49.20;100028.66;2263394;75;52618;-76
2024/04/26 06:32:09;;;;;;;22.25;3.15;;;;;;;19.36;49.39;100029.99;2294301;75;50614;-76
2024/04/26 06:35:11;;;;;;;23.98;4.20;;;;;;;19.38;49.28;100033.01;2305541;75;51581;-75
2024/04/26 06:38:14;;;;;;;16.87;3.40;;;;;;;19.39;49.88;100030.63;2294680;75;49458;-76
2024/04/26 06:41:16;;;;;;;16.40;3.42;;;;;;;19.41;49.59;100035.28;2331489;76;50755;-76
2024/04/26 06:44:18;;;;;;;15.55;3.37;;;;;;;19.40;49.38;100030.95;2305703;76;51485;-76
2024/04/26 06:47:21;;;;;;;27.22;4.87;;;;;;;19.41;49.35;100033.42;2317857;75;49962;-76
2024/04/26 06:50:23;;;;;;;14.53;3.90;;;;;;;19.42;49.33;100043.63;2318052;76;50378;-77
2024/04/26 06:53:25;;;;;;;18.70;4.05;;;;;;;19.43;49.38;100038.59;2305901;76;49857;-76
2024/04/26 06:56:27;;;;;;;17.42;4.60;;;;;;;19.45;49.33;100033.86;2305531;75;50646;-76
2024/04/26 06:59:29;;;;;;;18.85;3.95;;;;;;;19.45;49.44;100040.56;2318028;76;51574;-76
2024/04/26 07:02:32;;;;;;;16.05;4.45;;;;;;;19.46;49.39;100044.37;2280129;76;50060;-76
2024/04/26 07:05:34;;;;;;;19.35;4.97;;;;;;;19.47;49.34;100043.36;2318005;76;51399;-76
2024/04/26 07:08:36;;;;;;;18.70;5.30;;;;;;;19.48;49.35;100038.81;2305953;76;50771;-77
2024/04/26 07:11:38;;;;;;;19.17;5.25;;;;;;;19.47;49.28;100041.16;2318324;76;50698;-77
2024/04/26 07:14:41;;;;;;;19.57;5.83;;;;;;;19.49;49.29;100039.92;2318135;76;51447;-76
2024/04/26 07:17:44;;;;;;;23.25;5.35;;;;;;;19.50;49.20;100044.80;2305708;76;51005;-76
2024/04/26 07:20:46;;;;;;;14.45;5.42;;;;;;;19.50;49.15;100048.30;2306118;76;50245;-76
2024/04/26 07:23:49;;;;;;;22.75;5.95;;;;;;;19.50;49.09;100045.62;2318063;76;50606;-75
2024/04/26 07:26:51;;;;;;;20.92;5.33;;;;;;;19.53;49.04;100055.13;2305832;76;51547;-76
2024/04/26 07:29:53;;;;;;;15.30;5.08;;;;;;;19.51;48.97;100050.47;2318280;76;51479;-77
2024/04/26 07:32:56;;;;;;;16.45;5.45;;;;;;;19.50;48.97;100047.48;2318597;76;50463;-76
2024/04/26 07:35:58;;;;;;;21.20;4.83;;;;;;;19.50;48.84;100049.65;2306023;75;52579;-76
2024/04/26 07:39:01;;;;;;;17.98;4.90;;;;;;;19.50;48.84;100038.91;2318589;76;51682;-77
2024/04/26 07:42:04;;;;;;;14.25;4.85;;;;;;;19.51;48.70;100050.47;2318426;76;50358;-76
2024/04/26 07:45:07;;;;;;;13.70;5.15;;;;;;;19.50;48.67;100053.67;2256502;75;49646;-76
2024/04/26 07:48:10;;;;;;;17.48;5.22;;;;;;;19.50;48.62;100050.17;2280890;76;51563;-77
2024/04/26 07:51:13;;;;;;;14.28;4.28;;;;;;;19.49;48.58;100045.81;2306618;76;50284;-79
2024/04/26 07:54:15;;;;;;;14.10;4.50;;;;;;;19.51;48.52;100045.10;2318241;76;50472;-78
2024/04/26 07:57:17;;;;;;;17.25;5.05;;;;;;;19.51;48.46;100042.42;2317884;75;50444;-77
2024/04/26 08:00:19;;;;;;;17.73;5.10;;;;;;;19.50;48.54;100055.02;2305787;76;49615;-77
2024/04/26 08:03:22;;;;;;;16.42;4.92;;;;;;;19.55;48.46;100054.41;2318134;76;50631;-77
2024/04/26 08:06:25;;;;;;;15.35;5.92;;;;;;;19.55;48.54;100051.20;2317948;75;51508;-77
2024/04/26 08:09:27;;;;;;;15.32;4.42;;;;;;;19.57;48.45;100033.55;2305888;76;49283;-77
2024/04/26 08:12:29;;;;;;;15.85;4.90;;;;;;;19.57;48.44;100036.22;2305942;76;51591;-77
2024/04/26 08:15:31;;;;;;;14.83;4.67;;;;;;;19.56;48.41;100035.41;2318097;76;51469;-77
2024/04/26 08:18:33;;;;;;;12.85;4.20;;;;;;;19.56;48.38;100041.30;2318304;75;51450;-77
2024/04/26 08:21:36;;;;;;;14.03;4.47;;;;;;;19.57;48.27;100037.08;2318337;76;50256;-77
2024/04/26 08:24:38;;;;;;;10.68;3.87;;;;;;;19.55;48.27;100032.42;2306112;76;49584;-77
2024/04/26 08:27:40;;;;;;;10.53;4.08;;;;;;;19.56;48.18;100034.58;2318066;75;50713;-78
2024/04/26 08:30:44;;;;;;;12.70;4.33;;;;;;;19.57;48.12;100036.22;2318235;75;51562;-77
2024/04/26 08:33:46;;;;;;;10.90;4.00;;;;;;;19.58;47.98;100035.21;2306603;76;22402;-77
2024/04/26 08:36:48;;;;;;;10.65;3.90;;;;;;;19.59;47.86;100035.51;2318044;75;51557;-77
2024/04/26 08:39:51;;;;;;;13.03;4.15;;;;;;;19.59;47.77;100034.17;2318436;76;50249;-77
2024/04/26 08:42:53;;;;;;;11.55;3.80;;;;;;;19.61;47.31;100030.77;2318095;76;49952;-77
2024/04/26 08:45:55;;;;;;;11.35;3.90;;;;;;;19.60;47.12;100027.79;2317849;75;50441;-77
2024/04/26 08:48:57;;;;;;;9.80;3.27;;;;;;;19.60;46.58;100025.11;2305990;76;50041;-77
2024/04/26 08:52:01;;;;;;;11.70;3.55;;;;;;;19.63;46.37;100030.06;2318243;76;50283;-77
2024/04/26 08:55:03;;;;;;;10.20;3.55;;;;;;;19.62;46.24;100025.70;2318041;76;51506;-77
2024/04/26 08:58:07;;;;;;;11.30;3.87;;;;;;;19.64;46.13;100026.33;2255536;76;51084;-77
2024/04/26 09:01:10;;;;;;;10.48;3.83;;;;;;;19.65;46.13;100029.34;2318223;76;51520;-77
2024/04/26 09:04:13;;;;;;;12.28;3.65;;;;;;;19.67;46.12;100029.97;2318247;76;50674;-77
2024/04/26 09:07:15;;;;;;;11.78;3.72;;;;;;;19.66;45.92;100032.33;2317950;75;50304;-77
2024/04/26 09:10:17;;;;;;;10.65;3.17;;;;;;;19.66;45.94;100032.84;2318079;75;50697;-77
2024/04/26 09:13:20;;;;;;;10.90;3.12;;;;;;;19.67;45.77;100029.97;2280155;76;52540;-77
2024/04/26 09:16:23;;;;;;;8.78;3.08;;;;;;;19.66;45.98;100029.64;2318035;75;50655;-77
2024/04/26 09:19:26;;;;;;;8.80;2.90;;;;;;;19.68;45.81;100034.81;2318352;76;50750;-77
2024/04/26 09:22:31;;;;;;;13.22;3.70;;;;;;;19.68;45.97;100039.70;2306050;76;49541;-77
2024/04/26 09:25:39;;;;;;;10.32;3.10;;;;;;;19.70;45.96;100026.87;2318240;76;22343;-77
2024/04/26 09:28:39;;;;;;;9.30;3.15;;;;;;;19.70;46.11;100037.61;2305851;76;22893;-76
2024/04/26 09:31:43;;;;;;;9.33;2.95;;;;;;;19.74;45.97;100028.65;2318208;76;51510;-76
2024/04/26 09:34:45;;;;;;;9.60;3.10;;;;;;;19.73;46.10;100030.52;2318229;76;50278;-76
2024/04/26 09:37:48;;;;;;;8.65;3.10;;;;;;;19.74;45.77;100028.65;2305758;76;49554;-76
2024/04/26 09:40:51;;;;;;;5.92;3.25;;;;;;;19.75;45.83;100027.08;2318209;76;51519;-76
2024/04/26 09:43:54;;;;;;;6.92;2.90;;;;;;;19.76;45.80;100017.20;2305918;76;51619;-76
2024/04/26 09:46:56;;;;;;;7.55;3.00;;;;;;;19.78;45.95;100025.34;2305728;76;49486;-76
2024/04/26 09:49:59;;;;;;;10.58;3.37;;;;;;;19.80;45.91;100022.44;2318196;76;51505;-76
2024/04/26 09:53:01;;;;;;;9.05;3.00;;;;;;;19.80;45.79;100027.29;2318194;76;51475;-76
2024/04/26 09:56:03;;;;;;;7.67;3.15;;;;;;;19.77;45.38;100019.66;2317838;75;51498;-76
2024/04/26 09:59:06;;;;;;;5.00;2.15;;;;;;;19.79;45.57;100028.33;2306111;76;50356;-77
2024/04/26 10:02:11;;;;;;;6.67;2.70;;;;;;;19.79;45.60;100017.59;2306084;76;52731;-77
2024/04/26 10:05:22;;;;;;;8.27;2.73;;;;;;;19.79;45.68;100018.12;2318339;76;51570;-77
2024/04/26 10:08:36;;;;;;;6.25;2.22;;;;;;;19.76;45.65;100024.73;2318081;75;51549;-77
2024/04/26 10:11:48;;;;;;;6.17;2.25;;;;;;;19.78;45.48;100025.84;2305701;76;22379;-76
2024/04/26 10:14:51;;;;;;;4.95;2.30;;;;;;;19.80;45.48;100023.27;2316869;76;51786;-76
2024/04/26 10:17:53;;;;;;;6.08;2.20;;;;;;;19.80;45.45;100029.16;2305882;76;51631;-76
2024/04/26 10:20:56;;;;;;;4.90;2.40;;;;;;;19.76;45.21;100028.75;2318160;76;51454;-76
2024/04/26 10:24:02;;;;;;;7.25;2.87;;;;;;;19.76;44.91;100023.38;2318111;76;51528;-76
2024/04/26 10:27:04;;;;;;;6.65;2.65;;;;;;;19.75;45.08;100026.27;2305643;76;50091;-77
2024/04/26 10:30:08;;;;;;;6.25;2.40;;;;;;;19.74;45.21;100032.16;2318251;76;51532;-76
2024/04/26 10:33:11;;;;;;;4.97;2.27;;;;;;;19.73;45.04;100027.83;2318323;76;51645;-76
2024/04/26 10:36:15;;;;;;;7.53;2.27;;;;;;;19.72;44.97;100023.47;2305549;75;49576;-76
2024/04/26 10:39:25;;;;;;;5.00;2.25;;;;;;;19.72;44.98;100013.25;2318288;76;22417;-77
2024/04/26 10:42:27;;;;;;;7.47;2.33;;;;;;;19.72;44.78;100020.78;2305947;76;51547;-76
2024/04/26 10:45:29;;;;;;;5.92;2.20;;;;;;;19.71;44.83;100017.80;2317750;76;51506;-76
2024/04/26 10:48:32;;;;;;;6.67;2.20;;;;;;;19.70;44.92;100016.13;2318036;75;50447;-76
2024/04/26 10:51:35;;;;;;;5.37;2.35;;;;;;;19.69;44.78;100027.91;2305839;76;51445;-77
2024/04/26 10:54:39;;;;;;;7.20;2.12;;;;;;;19.69;44.67;100024.41;2318017;76;50754;-77
2024/04/26 10:57:42;;;;;;;4.80;2.22;;;;;;;19.69;44.62;100023.06;2317901;75;51537;-77
2024/04/26 11:00:46;;;;;;;3.55;1.85;;;;;;;19.68;44.62;100020.91;2306083;76;50096;-77
2024/04/26 11:03:53;;;;;;;5.15;2.30;;;;;;;19.67;44.46;100017.89;2306601;76;23009;-77
2024/04/26 11:06:55;;;;;;;6.22;2.17;;;;;;;19.67;44.74;100018.41;2317922;75;51492;-77
2024/04/26 11:09:58;;;;;;;3.65;1.90;;;;;;;19.65;44.71;100016.41;2318130;76;51588;-77
2024/04/26 11:13:00;;;;;;;3.17;1.77;;;;;;;19.62;45.08;100012.28;2318082;76;51479;-77
2024/04/26 11:16:02;;;;;;;4.25;2.12;;;;;;;19.62;45.34;100017.65;2317849;75;52534;-78
2024/04/26 11:19:04;;;;;;;4.37;2.20;;;;;;;19.64;45.56;100012.91;2305837;76;50319;-76
2024/04/26 11:22:07;;;;;;;4.08;2.05;;;;;;;19.64;45.60;100012.91;2318083;76;50738;-76
2024/04/26 11:25:09;;;;;;;4.00;2.05;;;;;;;19.67;45.29;100010.36;2255097;76;52445;-76
2024/04/26 11:28:11;;;;;;;6.95;1.82;;;;;;;19.69;45.21;100017.70;2280060;76;50341;-76
2024/04/26 11:31:13;;;;;;;4.25;1.82;;;;;;;19.68;44.65;100007.48;2318209;76;50432;-76
2024/04/26 11:34:17;;;;;;;3.58;1.75;;;;;;;19.66;45.14;100006.83;2318254;76;50813;-76
2024/04/26 11:37:20;;;;;;;5.62;1.77;;;;;;;19.66;45.12;100009.52;2305890;76;51559;-76
2024/04/26 11:40:22;;;;;;;3.35;1.80;;;;;;;19.64;45.29;100012.91;2279848;76;52631;-77
2024/04/26 11:43:24;;;;;;;4.35;2.10;;;;;;;19.68;45.35;100012.86;2318121;76;50773;-77
2024/04/26 11:46:27;;;;;;;5.83;1.57;;;;;;;19.68;45.00;100003.46;2305800;75;51529;-77
2024/04/26 11:49:30;;;;;;;3.90;1.72;;;;;;;19.67;45.16;100006.34;2280036;76;50557;-76
2024/04/26 11:52:32;;;;;;;2.50;1.60;;;;;;;19.69;45.06;100006.44;2318016;76;50675;-76
2024/04/26 11:55:34;;;;;;;3.70;1.77;;;;;;;19.68;45.15;100008.83;2317815;76;51557;-76
2024/04/26 11:58:36;;;;;;;3.52;1.67;;;;;;;19.68;44.50;100007.48;2318032;75;51425;-76
2024/04/26 12:01:45;;;;;;;2.85;1.60;;;;;;;19.67;45.18;100016.55;2318251;76;51455;-76
2024/04/26 12:04:50;;;;;;;2.87;1.45;;;;;;;19.67;45.30;100025.12;2305768;76;50056;-76
2024/04/26 12:07:51;;;;;;;3.67;1.62;;;;;;;19.68;45.65;100012.86;2318195;75;23233;-77
2024/04/26 12:10:54;;;;;;;3.92;1.62;;;;;;;19.68;45.63;100014.20;2318206;76;50438;-77
2024/04/26 12:13:56;;;;;;;4.55;1.55;;;;;;;19.69;45.65;100020.38;2306017;76;49540;-77
2024/04/26 12:16:59;;;;;;;2.22;1.50;;;;;;;19.71;45.28;100019.67;2318150;75;51580;-77
2024/04/26 12:20:02;;;;;;;3.05;1.80;;;;;;;19.71;45.10;100009.75;2318306;76;51399;-77
2024/04/26 12:23:04;;;;;;;2.65;1.50;;;;;;;19.70;45.20;100009.42;2306006;76;50233;-77
2024/04/26 12:26:06;;;;;;;4.90;1.70;;;;;;;19.69;44.54;100022.55;2305833;75;52473;-77
2024/04/26 12:29:13;;;;;;;3.22;1.70;;;;;;;19.69;45.46;100023.89;2280185;76;51349;-77
2024/04/26 12:32:12;;;;;;;3.75;1.67;;;;;;;19.70;45.37;100022.02;2318222;76;22380;-77
2024/04/26 12:35:14;;;;;;;3.52;1.70;;;;;;;19.68;45.33;100028.11;2318118;76;51560;-77
2024/04/26 12:38:17;;;;;;;3.02;1.40;;;;;;;19.70;45.37;100024.19;2280307;76;50928;-78
2024/04/26 12:41:19;;;;;;;3.58;1.60;;;;;;;19.70;45.39;100021.50;2306317;76;50706;-77
2024/04/26 12:44:21;;;;;;;2.77;1.47;;;;;;;19.71;44.57;100025.04;2308452;75;51510;-76
2024/04/26 12:47:29;;;;;;;3.30;1.70;;;;;;;19.71;44.59;100023.17;2310490;75;50344;-76
2024/04/26 12:50:27;;;;;;;2.67;1.80;;;;;;;19.73;45.15;100019.77;2307588;75;23181;-77
2024/04/26 12:53:29;;;;;;;5.22;2.60;;;;;;;19.75;45.65;100016.34;2311610;75;50090;-76
2024/04/26 12:56:31;;;;;;;6.90;2.60;;;;;;;19.77;48.00;100018.31;2358297;74;51478;-76
2024/04/26 12:59:35;;;;;;;4.87;1.80;;;;;;;19.78;48.99;100031.21;2358382;75;50327;-77
2024/04/26 13:02:37;;;;;;;3.15;1.80;;;;;;;19.79;49.52;100023.48;2307181;75;50144;-76
2024/04/26 13:05:40;;;;;;;5.03;1.90;;;;;;;19.82;49.16;100016.87;2336328;75;50717;-76
2024/04/26 13:08:42;;;;;;;3.50;1.40;;;;;;;19.83;49.02;100021.20;2308588;76;51526;-76
2024/04/26 13:11:44;;;;;;;4.40;1.82;;;;;;;19.86;48.73;100018.95;2302092;75;51404;-76
2024/04/26 13:14:46;;;;;;;5.00;1.70;;;;;;;19.86;48.38;100010.89;2313008;75;51614;-77
2024/04/26 13:17:48;;;;;;;5.58;1.62;;;;;;;19.87;48.17;100009.03;2294210;76;51596;-76
2024/04/26 13:20:51;;;;;;;2.98;1.55;;;;;;;19.87;48.10;100013.87;2285367;76;50322;-77
2024/04/26 13:23:53;;;;;;;3.83;1.85;;;;;;;19.90;47.91;100022.03;2293802;76;51599;-76
2024/04/26 13:26:55;;;;;;;3.45;1.47;;;;;;;19.91;47.83;100015.12;2206523;76;49560;-76
2024/04/26 13:29:57;;;;;;;2.95;1.22;;;;;;;19.89;47.79;100017.19;2255373;78;51519;-77
2024/04/26 13:33:00;;;;;;;2.02;1.40;;;;;;;19.91;47.65;100015.12;2254610;77;50338;-76
2024/04/26 13:36:03;;;;;;;4.47;1.45;;;;;;;19.90;47.49;100012.64;2274350;77;51544;-76
2024/04/26 13:39:05;;;;;;;3.20;1.60;;;;;;;19.89;47.30;100013.69;2230731;78;50542;-76
2024/04/26 13:42:07;;;;;;;2.98;1.60;;;;;;;19.90;47.19;100014.80;2243942;78;49575;-77
2024/04/26 13:45:11;;;;;;;5.12;1.40;;;;;;;19.89;47.04;100011.00;2274575;77;50273;-77
2024/04/26 13:48:15;;;;;;;4.75;1.60;;;;;;;19.88;46.74;100014.70;2255396;78;51682;-76
2024/04/26 13:51:17;;;;;;;2.67;1.20;;;;;;;19.88;46.67;100020.89;2243673;78;49707;-76
2024/04/26 13:54:22;;;;;;;2.10;1.50;;;;;;;19.89;46.31;100020.39;2255004;78;51557;-76
2024/04/26 13:57:24;;;;;;;4.42;1.50;;;;;;;19.87;46.42;100017.09;2274649;76;22369;-76
2024/04/26 14:00:26;;;;;;;2.42;1.45;;;;;;;19.90;46.41;100020.69;2274762;78;51563;-76
2024/04/26 14:03:28;;;;;;;4.55;1.62;;;;;;;19.87;46.42;100022.45;2274703;76;51520;-77
2024/04/26 14:06:30;;;;;;;4.40;1.60;;;;;;;19.89;46.10;100013.69;2230840;77;51655;-77
2024/04/26 14:09:32;;;;;;;4.08;1.20;;;;;;;19.89;46.23;100013.69;2274619;78;50378;-76